Detroit, Michigan
Current Conditions -  °F | °C
As of 10:00 AM on Sunday 21 Dec 2014 (Local Time) from CYQG Reporting Station
Overcast Overcast  
Wind Chill: 28°   Ceiling: 26000
Heat Index: 28°   Visibility: 7mi
Dew Point: 25°   Wind: 2mph
Humidity: 86%   Direction: 170°S
Pressure: 30.31"   Gusts: NA
Location:  42.33°N, 83.05°W
Report Text: CYQG 211500Z 17002KT 7SM OVC260 M02/M04 A3031 RMK CI8 CONTRAILS SLP274
Loading
Personal Weather Stations






























Interactive Weather Map New forecast layout! Learn more

10-Day Weather Forecast

Advertisements
Track Severe Weather on mobile